Avalon, TX (76623)

4:55 AM CST on February 12, 2016 (GMT -0600)
Crystal Cove Estates | | Change Station
CLOSE
Current Station
Personal Weather Station
Location: Waxahachie, TX
Elevation: 561 ft
Nearby Weather Stations

Elev 561 ft 32.33 °N, 96.82 °W | Updated 1 second ago

Clear
Clear
48.4 °F
Feels Like 48 °F
N
3.2
Wind Variable Wind from NNE

Today
High -- | Low -- °F
--% Chance of Precip.
Yesterday
High -- | Low -- °F
Precip. -- in
Pressure 30.15 in
Visibility 10.0 miles
Clouds Clear
Windchill 48 °F
Dew Point 38 °F
Humidity 68%
Rainfall 0.00 in
Snow Depth Not available.
7:12 AM 6:10 PM
Waxing Crescent, 19% visible
METAR KJWY 121035Z AUTO 00000KT 10SM CLR 08/03 A3015 RMK AO2 T00790027
Pressure 30.15 in
Visibility 10.0 miles
Clouds Clear
Windchill 48 °F
Dew Point 38 °F
Humidity 68%
Rainfall 0.00 in
Snow Depth Not available.
7:12 AM 6:10 PM
Waxing Crescent, 19% visible
METAR KJWY 121035Z AUTO 00000KT 10SM CLR 08/03 A3015 RMK AO2 T00790027

10-Day Weather Forecast

Almanac

Astronomy

Feb. 12, 2016 Rise Set
Actual Time
Civil Twilight
Nautical Twilight
Astronomical Twilight
Moon
Length of Visible Light
Length of Day
Tomorrow will be .
, % of the Moon is Illuminated

Today's Extremes

State Highs State Lows

Community

WunderPhotos

Upload Photos

1,892,289 photos uploaded!

WunderBlog® & News

Nearby

Air Quality

  Air Quality AQ Index Pollutant
Not available.

Snow Depth

Station Depth Elevation

Earthquake Activity

City Distance Mag. Time & Date
Minimum magnitude displayed is 2.5.

Coastal Water Temperatures

Place Temperature

Stations

Nearby Weather Stations

Station Location Temp. Windchill Dew Point Humidity Wind Precip. Elev Updated Type
                   

Watches & Warnings

There are currently no watches in effect.